Weather at Maturín Airport

Public forecast

Using degrees Celsius for public forecast. Weather courtesy of forecast.io.

Current aviation weather report (METAR) for Maturín Airport

Report is more than 6 hours old.

Retrieved 2018/12/04 12:00 UTC (3 years ago):

SVMT 041200Z /////KT 9999 SCT010 BKN300 23/22 Q1011

Closest aviation forecast (TAF) to Maturín Airport

Closest forecast is Del Caribe Santiago Mariño International Airport, 84.8 nm (157.0 km) NW. Retrieved 2022/05/26 12:05 UTC (5 hours ago):

TAF SVMG 261000Z 2612/2712 07011KT 9999 SCT016 TX33/2618Z TN24/2608Z BECMG 2512/2516 07013KT 9999 FEW013 SCT016